createdAt,value
2023-01-30T00:02:11.295Z,63.98
2023-01-30T00:04:41.840Z,63.99
2023-01-30T00:07:10.247Z,64.13
2023-01-30T00:09:44.182Z,64.24
2023-01-30T00:12:15.384Z,64.44
2023-01-30T00:14:43.635Z,64.53
2023-01-30T00:17:11.712Z,64.13
2023-01-30T00:19:40.511Z,64.07
2023-01-30T00:22:08.884Z,64.35
2023-01-30T00:24:45.552Z,64.43
2023-01-30T00:27:14.879Z,64.62
2023-01-30T00:29:45.688Z,64.85
2023-01-30T00:32:17.564Z,65.20
2023-01-30T00:34:45.999Z,65.20
2023-01-30T00:37:15.940Z,65.22
2023-01-30T00:39:44.129Z,65.17
2023-01-30T00:42:31.185Z,65.13
2023-01-30T00:45:18.434Z,65.24
2023-01-30T00:47:48.937Z,65.70
2023-01-30T00:50:17.150Z,65.82
2023-01-30T00:52:45.266Z,65.61
2023-01-30T00:55:13.632Z,65.37
2023-01-30T00:57:42.195Z,65.45
2023-01-30T01:00:11.969Z,65.56
2023-01-30T01:02:42.480Z,65.84
2023-01-30T01:05:10.882Z,66.03
2023-01-30T01:07:39.927Z,66.17
2023-01-30T01:10:16.574Z,66.07
2023-01-30T01:12:45.583Z,66.14
2023-01-30T01:15:13.993Z,66.68
2023-01-30T01:17:42.841Z,66.67
2023-01-30T01:20:13.255Z,66.85
2023-01-30T01:22:41.943Z,66.95
2023-01-30T01:25:10.800Z,67.09
2023-01-30T01:27:40.682Z,66.93
2023-01-30T01:30:11.118Z,67.01
2023-01-30T01:32:39.567Z,67.21
2023-01-30T01:35:10.673Z,67.32
2023-01-30T01:37:39.386Z,67.36
2023-01-30T01:40:31.815Z,67.54
2023-01-30T01:43:00.821Z,67.27
2023-01-30T01:45:29.612Z,67.13
2023-01-30T01:48:25.175Z,67.44
2023-01-30T01:51:09.829Z,67.57
2023-01-30T01:53:54.797Z,67.54
2023-01-30T01:56:23.133Z,67.02
2023-01-30T01:58:55.144Z,67.04
2023-01-30T02:01:24.081Z,67.03
2023-01-30T02:03:56.265Z,67.16
2023-01-30T02:06:24.427Z,67.28
2023-01-30T02:08:55.719Z,67.09
2023-01-30T02:11:32.553Z,66.98
2023-01-30T02:14:00.917Z,67.13
2023-01-30T02:16:29.072Z,67.33
2023-01-30T02:18:57.245Z,67.53
2023-01-30T02:22:13.409Z,67.61
2023-01-30T02:24:51.871Z,67.39
2023-01-30T02:27:47.915Z,67.48
2023-01-30T02:30:45.279Z,67.58
2023-01-30T02:33:13.655Z,67.71
2023-01-30T02:36:00.317Z,67.79
2023-01-30T02:38:28.357Z,67.77
2023-01-30T02:41:25.950Z,67.81
2023-01-30T02:44:05.227Z,67.75
2023-01-30T02:46:35.845Z,67.45
2023-01-30T02:49:25.366Z,67.61
2023-01-30T02:51:53.535Z,67.75
2023-01-30T02:54:22.313Z,67.85
2023-01-30T02:56:55.121Z,67.91
2023-01-30T02:59:40.159Z,68.04
2023-01-30T03:02:33.059Z,67.97
2023-01-30T03:05:39.087Z,67.96
2023-01-30T03:08:35.263Z,68.11
2023-01-30T03:11:06.057Z,68.56
2023-01-30T03:13:55.372Z,68.72
2023-01-30T03:16:27.384Z,68.88
2023-01-30T03:18:55.979Z,68.62
2023-01-30T03:21:24.131Z,68.82
2023-01-30T03:23:53.523Z,68.85
2023-01-30T03:26:26.548Z,68.62
2023-01-30T03:28:54.840Z,68.42
2023-01-30T03:31:23.102Z,68.32
2023-01-30T03:33:51.402Z,68.42
2023-01-30T03:36:19.635Z,68.57
2023-01-30T03:38:48.006Z,68.41
2023-01-30T03:41:16.601Z,68.45
2023-01-30T03:43:44.836Z,68.41
2023-01-30T03:46:14.479Z,68.39
2023-01-30T09:52:46.229Z,74.27
2023-01-30T09:55:22.661Z,72.66
2023-01-30T09:57:51.171Z,72.51
2023-01-30T10:00:36.667Z,72.39
2023-01-30T10:03:16.351Z,72.69
2023-01-30T10:06:11.403Z,72.59
2023-01-30T10:09:20.327Z,72.27
2023-01-30T10:11:57.720Z,72.44
2023-01-30T10:14:52.144Z,72.67
2023-01-30T11:24:16.720Z,74.10
2023-01-30T11:26:47.876Z,71.93
2023-01-30T11:29:24.383Z,71.93
2023-01-30T11:31:51.385Z,71.92
2023-01-30T11:34:19.696Z,72.20
2023-01-30T11:36:47.477Z,72.23
2023-01-30T11:39:18.247Z,72.08
2023-01-30T11:41:54.959Z,72.03
2023-01-30T11:44:44.333Z,72.31
2023-01-30T11:47:21.765Z,72.31
2023-01-30T15:52:49.838Z,75.58
2023-01-30T15:55:21.499Z,73.53
2023-01-30T15:57:52.244Z,73.46
2023-01-30T16:00:29.252Z,73.37
2023-01-30T16:02:57.780Z,73.24
2023-01-30T16:05:26.398Z,73.30
2023-01-30T16:07:58.245Z,73.43
2023-01-30T16:10:29.751Z,73.30
2023-01-30T16:12:58.410Z,73.08
2023-01-30T16:15:34.291Z,73.43
2023-01-30T16:18:28.113Z,73.52
2023-01-30T16:21:10.461Z,73.49
2023-01-30T16:24:18.470Z,73.57
2023-01-30T16:27:00.731Z,73.40
2023-01-30T16:29:31.789Z,73.50
2023-01-30T16:32:00.150Z,73.77
2023-01-30T16:34:34.695Z,73.55
2023-01-30T16:37:23.055Z,73.37
2023-01-30T16:40:13.961Z,73.50
2023-01-30T16:42:42.436Z,73.44
2023-01-30T16:45:16.213Z,73.44
2023-01-30T16:47:44.527Z,73.43
2023-01-30T16:50:22.947Z,73.47
2023-01-30T16:52:52.664Z,73.49
2023-01-30T16:55:22.456Z,73.79
2023-01-30T16:57:55.264Z,73.69
2023-01-30T17:00:38.483Z,73.48
2023-01-30T17:03:09.030Z,73.78
2023-01-30T17:05:39.730Z,73.91
2023-01-30T17:08:33.040Z,73.70
2023-01-30T17:11:04.637Z,73.87
2023-01-30T17:13:43.458Z,73.92
2023-01-30T17:16:23.746Z,73.73
2023-01-30T17:18:53.838Z,73.80
2023-01-30T17:21:23.372Z,74.06
2023-01-30T17:23:58.352Z,73.79
2023-01-30T17:26:26.668Z,73.89
2023-01-30T17:28:54.861Z,74.18
2023-01-30T17:31:23.203Z,74.20
2023-01-30T17:33:52.375Z,74.35
2023-01-30T17:36:24.109Z,74.49
2023-01-30T17:38:52.616Z,74.72
2023-01-30T17:41:24.316Z,74.58
2023-01-30T17:43:52.529Z,74.77
2023-01-30T17:46:23.518Z,74.87
2023-01-30T17:48:51.986Z,74.88
2023-01-30T17:51:20.307Z,75.03
2023-01-30T17:53:48.444Z,75.15
2023-01-30T17:56:38.398Z,74.76
2023-01-30T17:59:17.235Z,74.66
2023-01-30T18:01:47.401Z,74.81
2023-01-30T18:04:15.754Z,74.94
2023-01-30T18:06:44.906Z,74.85
2023-01-30T18:09:18.256Z,74.88
2023-01-30T18:11:47.154Z,75.02
2023-01-30T18:14:15.567Z,74.85
2023-01-30T18:16:44.149Z,74.87
2023-01-30T18:19:13.624Z,74.79
2023-01-30T18:21:45.296Z,74.76
2023-01-30T18:24:17.087Z,74.94
2023-01-30T18:26:46.240Z,74.93
2023-01-30T18:29:14.452Z,74.86
2023-01-30T18:31:42.798Z,74.98
2023-01-30T18:34:11.958Z,75.22
2023-01-30T18:36:40.281Z,75.07
2023-01-30T18:39:11.899Z,75.03
2023-01-30T18:41:40.263Z,74.99
2023-01-30T18:44:10.143Z,74.74
2023-01-30T18:46:38.330Z,74.60
2023-01-30T18:49:08.498Z,74.52
2023-01-30T18:51:36.903Z,74.92
2023-01-30T18:54:05.032Z,75.02
2023-01-30T18:56:34.413Z,75.07
2023-01-30T18:59:04.353Z,75.05
2023-01-30T19:01:42.654Z,75.22
2023-01-30T19:04:11.591Z,75.25
2023-01-30T19:06:42.224Z,75.16
2023-01-30T19:09:17.570Z,75.36
2023-01-30T19:12:04.181Z,75.46
2023-01-30T19:14:32.723Z,75.53
2023-01-30T19:17:01.571Z,75.48
2023-01-30T19:19:30.099Z,75.48
2023-01-30T19:21:58.365Z,75.63
2023-01-30T19:24:27.187Z,75.63
2023-01-30T19:26:55.405Z,75.41
2023-01-30T19:29:23.906Z,75.34
2023-01-30T19:31:52.135Z,75.66
2023-01-30T19:34:21.380Z,75.62
2023-01-30T19:36:49.955Z,75.39
2023-01-30T19:39:18.618Z,75.62
2023-01-30T19:41:46.837Z,75.81
2023-01-30T19:44:14.968Z,75.61
2023-01-30T22:19:48.042Z,89.96
2023-01-30T22:22:16.864Z,88.13
2023-01-30T22:24:45.055Z,87.69
2023-01-30T22:27:13.233Z,87.60
2023-01-30T22:29:41.505Z,87.60
2023-01-30T22:32:10.778Z,87.53
2023-01-30T22:34:39.344Z,87.54
2023-01-30T22:37:07.872Z,87.67
2023-01-30T22:39:36.348Z,88.02
2023-01-30T22:42:04.642Z,88.15
2023-01-30T22:44:32.900Z,88.20
2023-01-30T22:47:01.257Z,88.38
2023-01-30T22:49:29.556Z,88.48
2023-01-30T22:51:57.804Z,88.52
2023-01-30T22:54:26.122Z,88.65
2023-01-30T22:56:54.560Z,88.68
2023-01-30T22:59:23.091Z,88.81
2023-01-30T23:01:51.474Z,89.07
2023-01-30T23:04:21.903Z,89.08
2023-01-30T23:06:51.604Z,89.18
2023-01-30T23:09:22.559Z,89.28
2023-01-30T23:12:18.810Z,89.34
2023-01-30T23:14:46.960Z,89.36
2023-01-30T23:17:33.563Z,89.46
2023-01-30T23:20:01.737Z,89.61
2023-01-30T23:22:30.054Z,89.67
2023-01-30T23:24:58.284Z,89.78
2023-01-30T23:27:26.972Z,89.96
2023-01-30T23:29:55.103Z,90.01
2023-01-30T23:32:24.009Z,90.16
2023-01-30T23:34:52.259Z,90.35
2023-01-30T23:37:40.354Z,90.57
2023-01-30T23:40:11.320Z,90.76
2023-01-30T23:42:40.245Z,90.75
2023-01-30T23:45:09.237Z,90.76
2023-01-30T23:47:37.886Z,90.88
2023-01-30T23:50:06.408Z,91.15
2023-01-30T23:52:35.058Z,91.04
2023-01-30T23:55:04.081Z,91.07
2023-01-30T23:57:33.722Z,91.14
